Página principal
METAR-TAF:

METAR-TAF

Aeroportos :

Tozeur, Tunísia

latitude: 33-55N, longitude: 008-06E, altura: 87 m

Observação actual do tempo

O boletim foi feito há 12 minutos, às 17:00 UTC
Vento 22 kt de este
Temperatura 40°C
Humidade 20%
Pressão 1007 hPa
Visibilidade: 8000 m
Poucas nuvensa uma altura de 3300 ft

METAR: DTTZ 231700Z 09022KT 8000 FEW033 40/13 Q1007 NOSIG

Hora: 18:12 (17:12 UTC)

Previsão

O boletim foi feito há 6 horas e 12 minutos, às 11:00 UTC
Previsão válida de 23 às 12 UTC a 24 às 12 UTC
Vento 12 kt de es-nordeste
Visibilidade 10 km ou mais
sem nuvens abaixo de 1500 metros e sem cumulonimbus
Tornando-se
de 23 às 14 UTC a 23 às 16 UTC
Vento 22 kt de este
Tornando-se
de 24 às 08 UTC a 24 às 10 UTC
Vento 12 kt de este

TAF: DTTZ 231100Z 2312/2412 07012KT CAVOK BECMG 2314/2316 10022KT BECMG 2408/2410 10012KT

Observações e previsões do tempo de mais de 4000 aeroportos (mensagens METAR e TAF).

As estações disponíveis são os pontos amarelos e vermelhos sobre o mapa.

Mova o rato sobre o mapa para ver o nome da estação.

Depois clique no ponto para visualizar as observações e previsões meteorológicas.

Para alterar o mapa : clique nos botões verdes com uma cruz preta para aumentar o zoom; no botão verde com uma pitada de zoom; ou nas setas verdes para mapas adjacentes.


METAR-TAF: